Terminal Aerodrome Forecast
Issued by NWS Wichita, KS

Home | Current Version | Previous Version | Text Only | Print | Product List | Glossary On
Versions: 1 2 3 4 5 6 7 8 9 10 11 12 13 14 15 16
000
FTUS43 KICT 171100
TAFICT
TAF
KICT 171132Z 1712/1812 02014KT P6SM OVC120
     FM171400 03013KT P6SM VCSH OVC080
      TEMPO 1714/1718 6SM -RA OVC040
     FM172000 05005KT P6SM OVC120
     FM180100 14006KT P6SM SCT120=

USA.gov is the U.S. government's official web portal to all federal, state and local government web resources and services.